sensor_id;sensor_type;location;lat;lon;timestamp;P1;durP1;ratioP1;P2;durP2;ratioP2
8982;SDS011;20979;59.850;10.660;2022-08-21T00:09:50;2.37;;;1.23;;
8982;SDS011;20979;59.850;10.660;2022-08-21T00:18:23;2.13;;;1.07;;
8982;SDS011;20979;59.850;10.660;2022-08-21T00:33:00;1.93;;;1.30;;
8982;SDS011;20979;59.850;10.660;2022-08-21T00:35:29;2.63;;;1.50;;
8982;SDS011;20979;59.850;10.660;2022-08-21T00:38:16;2.53;;;1.50;;
8982;SDS011;20979;59.850;10.660;2022-08-21T00:41:12;2.40;;;1.33;;
8982;SDS011;20979;59.850;10.660;2022-08-21T00:46:39;3.07;;;1.60;;
8982;SDS011;20979;59.850;10.660;2022-08-21T00:52:09;2.47;;;1.20;;
8982;SDS011;20979;59.850;10.660;2022-08-21T00:57:44;4.00;;;1.80;;
8982;SDS011;20979;59.850;10.660;2022-08-21T01:26:28;2.20;;;1.30;;
8982;SDS011;20979;59.850;10.660;2022-08-21T01:29:03;7.00;;;1.90;;
8982;SDS011;20979;59.850;10.660;2022-08-21T01:33:04;3.37;;;1.60;;
8982;SDS011;20979;59.850;10.660;2022-08-21T01:50:26;3.67;;;1.60;;
8982;SDS011;20979;59.850;10.660;2022-08-21T01:52:54;6.07;;;1.70;;
8982;SDS011;20979;59.850;10.660;2022-08-21T01:58:24;3.00;;;1.67;;
8982;SDS011;20979;59.850;10.660;2022-08-21T02:00:51;4.20;;;1.83;;
8982;SDS011;20979;59.850;10.660;2022-08-21T02:03:19;2.40;;;1.60;;
8982;SDS011;20979;59.850;10.660;2022-08-21T02:05:48;3.53;;;1.80;;
8982;SDS011;20979;59.850;10.660;2022-08-21T02:08:15;3.43;;;1.80;;
8982;SDS011;20979;59.850;10.660;2022-08-21T02:10:43;3.70;;;1.63;;
8982;SDS011;20979;59.850;10.660;2022-08-21T02:13:11;2.30;;;1.27;;
8982;SDS011;20979;59.850;10.660;2022-08-21T02:15:39;2.60;;;1.60;;
8982;SDS011;20979;59.850;10.660;2022-08-21T02:21:07;2.77;;;1.70;;
8982;SDS011;20979;59.850;10.660;2022-08-21T02:23:35;4.73;;;1.80;;
8982;SDS011;20979;59.850;10.660;2022-08-21T02:26:03;3.57;;;1.90;;
8982;SDS011;20979;59.850;10.660;2022-08-21T02:31:47;3.40;;;1.50;;
8982;SDS011;20979;59.850;10.660;2022-08-21T02:34:15;3.40;;;2.10;;
8982;SDS011;20979;59.850;10.660;2022-08-21T02:36:44;4.00;;;1.70;;
8982;SDS011;20979;59.850;10.660;2022-08-21T02:39:11;4.33;;;1.87;;
8982;SDS011;20979;59.850;10.660;2022-08-21T02:41:39;3.67;;;1.80;;
8982;SDS011;20979;59.850;10.660;2022-08-21T02:44:06;3.00;;;1.67;;
8982;SDS011;20979;59.850;10.660;2022-08-21T02:47:18;3.37;;;1.80;;
8982;SDS011;20979;59.850;10.660;2022-08-21T02:49:31;3.97;;;1.93;;
8982;SDS011;20979;59.850;10.660;2022-08-21T02:52:09;5.90;;;2.10;;
8982;SDS011;20979;59.850;10.660;2022-08-21T02:54:39;3.90;;;1.83;;
8982;SDS011;20979;59.850;10.660;2022-08-21T02:57:22;2.57;;;1.93;;
8982;SDS011;20979;59.850;10.660;2022-08-21T03:00:03;3.43;;;1.63;;
8982;SDS011;20979;59.850;10.660;2022-08-21T03:02:31;4.73;;;2.03;;
8982;SDS011;20979;59.850;10.660;2022-08-21T03:04:59;3.47;;;1.77;;
8982;SDS011;20979;59.850;10.660;2022-08-21T03:10:28;3.20;;;1.63;;
8982;SDS011;20979;59.850;10.660;2022-08-21T03:16:06;3.33;;;1.90;;
8982;SDS011;20979;59.850;10.660;2022-08-21T03:18:33;6.60;;;2.23;;
8982;SDS011;20979;59.850;10.660;2022-08-21T03:21:01;6.67;;;2.30;;
8982;SDS011;20979;59.850;10.660;2022-08-21T03:23:29;2.83;;;1.90;;
8982;SDS011;20979;59.850;10.660;2022-08-21T03:25:58;3.60;;;2.00;;
8982;SDS011;20979;59.850;10.660;2022-08-21T03:28:25;4.37;;;2.30;;
8982;SDS011;20979;59.850;10.660;2022-08-21T03:31:31;7.33;;;2.17;;
8982;SDS011;20979;59.850;10.660;2022-08-21T03:33:58;3.20;;;2.00;;
8982;SDS011;20979;59.850;10.660;2022-08-21T03:36:35;3.43;;;1.87;;
8982;SDS011;20979;59.850;10.660;2022-08-21T03:39:02;6.03;;;2.33;;
8982;SDS011;20979;59.850;10.660;2022-08-21T03:41:32;3.37;;;2.30;;
8982;SDS011;20979;59.850;10.660;2022-08-21T03:43:59;5.90;;;2.13;;
8982;SDS011;20979;59.850;10.660;2022-08-21T03:46:27;5.47;;;2.57;;
8982;SDS011;20979;59.850;10.660;2022-08-21T03:49:08;4.73;;;2.03;;
8982;SDS011;20979;59.850;10.660;2022-08-21T03:51:36;3.83;;;2.10;;
8982;SDS011;20979;59.850;10.660;2022-08-21T03:54:03;3.73;;;1.90;;
8982;SDS011;20979;59.850;10.660;2022-08-21T03:56:38;3.20;;;2.00;;
8982;SDS011;20979;59.850;10.660;2022-08-21T03:59:05;4.17;;;1.80;;
8982;SDS011;20979;59.850;10.660;2022-08-21T04:01:54;5.10;;;2.00;;
8982;SDS011;20979;59.850;10.660;2022-08-21T04:11:08;4.47;;;1.93;;
8982;SDS011;20979;59.850;10.660;2022-08-21T04:13:46;3.87;;;2.03;;
8982;SDS011;20979;59.850;10.660;2022-08-21T04:16:28;3.27;;;2.40;;
8982;SDS011;20979;59.850;10.660;2022-08-21T04:22:18;5.00;;;2.47;;
8982;SDS011;20979;59.850;10.660;2022-08-21T04:24:48;6.13;;;2.17;;
8982;SDS011;20979;59.850;10.660;2022-08-21T04:27:18;3.60;;;2.03;;
8982;SDS011;20979;59.850;10.660;2022-08-21T04:29:47;4.57;;;2.23;;
8982;SDS011;20979;59.850;10.660;2022-08-21T04:32:20;5.23;;;2.20;;
8982;SDS011;20979;59.850;10.660;2022-08-21T04:38:12;5.83;;;2.27;;
8982;SDS011;20979;59.850;10.660;2022-08-21T04:40:39;4.97;;;2.20;;
8982;SDS011;20979;59.850;10.660;2022-08-21T04:43:07;8.17;;;2.20;;
8982;SDS011;20979;59.850;10.660;2022-08-21T04:45:37;3.97;;;2.27;;
8982;SDS011;20979;59.850;10.660;2022-08-21T04:48:07;6.73;;;2.40;;
8982;SDS011;20979;59.850;10.660;2022-08-21T04:50:50;5.07;;;2.20;;
8982;SDS011;20979;59.850;10.660;2022-08-21T04:53:40;7.03;;;2.50;;
8982;SDS011;20979;59.850;10.660;2022-08-21T04:56:32;5.97;;;2.60;;
8982;SDS011;20979;59.850;10.660;2022-08-21T04:59:22;5.47;;;2.47;;
8982;SDS011;20979;59.850;10.660;2022-08-21T05:04:48;5.27;;;2.20;;
8982;SDS011;20979;59.850;10.660;2022-08-21T05:07:17;6.73;;;2.63;;
8982;SDS011;20979;59.850;10.660;2022-08-21T05:09:45;5.27;;;2.20;;
8982;SDS011;20979;59.850;10.660;2022-08-21T05:12:49;4.60;;;2.53;;
8982;SDS011;20979;59.850;10.660;2022-08-21T05:15:16;5.20;;;2.40;;
8982;SDS011;20979;59.850;10.660;2022-08-21T05:17:50;5.23;;;2.40;;
8982;SDS011;20979;59.850;10.660;2022-08-21T05:20:19;6.23;;;2.50;;
8982;SDS011;20979;59.850;10.660;2022-08-21T05:23:18;3.53;;;2.20;;
8982;SDS011;20979;59.850;10.660;2022-08-21T05:26:23;5.00;;;2.30;;
8982;SDS011;20979;59.850;10.660;2022-08-21T05:28:51;6.27;;;2.23;;
8982;SDS011;20979;59.850;10.660;2022-08-21T05:31:19;7.50;;;2.77;;
8982;SDS011;20979;59.850;10.660;2022-08-21T05:33:47;6.27;;;2.27;;
8982;SDS011;20979;59.850;10.660;2022-08-21T05:39:34;4.33;;;2.13;;
8982;SDS011;20979;59.850;10.660;2022-08-21T05:42:01;6.87;;;2.60;;
8982;SDS011;20979;59.850;10.660;2022-08-21T05:44:38;6.10;;;2.67;;
8982;SDS011;20979;59.850;10.660;2022-08-21T05:47:09;6.50;;;2.47;;
8982;SDS011;20979;59.850;10.660;2022-08-21T05:53:17;7.27;;;2.60;;
8982;SDS011;20979;59.850;10.660;2022-08-21T05:55:46;8.23;;;2.63;;
8982;SDS011;20979;59.850;10.660;2022-08-21T05:58:14;5.37;;;2.50;;
8982;SDS011;20979;59.850;10.660;2022-08-21T06:00:43;7.67;;;2.80;;
8982;SDS011;20979;59.850;10.660;2022-08-21T06:03:12;6.67;;;2.80;;
8982;SDS011;20979;59.850;10.660;2022-08-21T06:08:42;7.10;;;2.77;;
8982;SDS011;20979;59.850;10.660;2022-08-21T06:11:12;6.80;;;2.53;;
8982;SDS011;20979;59.850;10.660;2022-08-21T06:13:53;5.87;;;2.53;;
8982;SDS011;20979;59.850;10.660;2022-08-21T06:22:48;7.10;;;2.77;;
8982;SDS011;20979;59.850;10.660;2022-08-21T06:28:05;6.37;;;2.57;;
8982;SDS011;20979;59.850;10.660;2022-08-21T06:30:36;6.77;;;2.57;;
8982;SDS011;20979;59.850;10.660;2022-08-21T06:36:28;4.80;;;2.57;;
8982;SDS011;20979;59.850;10.660;2022-08-21T06:38:55;7.37;;;2.90;;
8982;SDS011;20979;59.850;10.660;2022-08-21T06:44:42;6.17;;;2.60;;
8982;SDS011;20979;59.850;10.660;2022-08-21T06:47:29;8.13;;;2.60;;
8982;SDS011;20979;59.850;10.660;2022-08-21T06:49:57;7.37;;;2.50;;
8982;SDS011;20979;59.850;10.660;2022-08-21T06:58:57;6.37;;;2.43;;
8982;SDS011;20979;59.850;10.660;2022-08-21T07:01:26;6.17;;;2.57;;
8982;SDS011;20979;59.850;10.660;2022-08-21T07:06:55;6.80;;;2.63;;
8982;SDS011;20979;59.850;10.660;2022-08-21T07:09:22;5.53;;;2.67;;
8982;SDS011;20979;59.850;10.660;2022-08-21T07:14:47;6.30;;;2.50;;
8982;SDS011;20979;59.850;10.660;2022-08-21T07:17:16;6.97;;;2.70;;
8982;SDS011;20979;59.850;10.660;2022-08-21T07:19:43;6.38;;;2.50;;
8982;SDS011;20979;59.850;10.660;2022-08-21T07:22:10;4.77;;;2.23;;
8982;SDS011;20979;59.850;10.660;2022-08-21T07:24:41;5.53;;;2.70;;
8982;SDS011;20979;59.850;10.660;2022-08-21T07:27:09;4.72;;;2.30;;
8982;SDS011;20979;59.850;10.660;2022-08-21T07:29:36;4.93;;;2.30;;
8982;SDS011;20979;59.850;10.660;2022-08-21T07:32:04;5.45;;;2.67;;
8982;SDS011;20979;59.850;10.660;2022-08-21T07:34:33;6.55;;;2.63;;
8982;SDS011;20979;59.850;10.660;2022-08-21T07:37:01;4.93;;;2.70;;
8982;SDS011;20979;59.850;10.660;2022-08-21T07:39:29;5.67;;;2.57;;
8982;SDS011;20979;59.850;10.660;2022-08-21T07:41:56;9.27;;;2.90;;
8982;SDS011;20979;59.850;10.660;2022-08-21T07:44:23;6.22;;;2.65;;
8982;SDS011;20979;59.850;10.660;2022-08-21T07:49:52;6.20;;;2.87;;
8982;SDS011;20979;59.850;10.660;2022-08-21T07:52:40;6.90;;;2.90;;
8982;SDS011;20979;59.850;10.660;2022-08-21T07:58:12;8.07;;;2.83;;
8982;SDS011;20979;59.850;10.660;2022-08-21T08:00:39;5.17;;;2.70;;
8982;SDS011;20979;59.850;10.660;2022-08-21T08:03:07;7.17;;;2.77;;
8982;SDS011;20979;59.850;10.660;2022-08-21T08:05:36;7.30;;;2.58;;
8982;SDS011;20979;59.850;10.660;2022-08-21T08:08:04;5.43;;;2.60;;
8982;SDS011;20979;59.850;10.660;2022-08-21T08:10:31;5.80;;;2.70;;
8982;SDS011;20979;59.850;10.660;2022-08-21T08:16:00;5.90;;;2.50;;
8982;SDS011;20979;59.850;10.660;2022-08-21T08:24:39;5.90;;;2.90;;
8982;SDS011;20979;59.850;10.660;2022-08-21T08:27:09;8.30;;;2.97;;
8982;SDS011;20979;59.850;10.660;2022-08-21T08:29:36;5.63;;;2.42;;
8982;SDS011;20979;59.850;10.660;2022-08-21T08:32:04;4.87;;;2.50;;
8982;SDS011;20979;59.850;10.660;2022-08-21T08:49:49;4.93;;;2.37;;
8982;SDS011;20979;59.850;10.660;2022-08-21T08:59:08;5.37;;;2.27;;
8982;SDS011;20979;59.850;10.660;2022-08-21T09:01:43;5.27;;;2.20;;
8982;SDS011;20979;59.850;10.660;2022-08-21T09:04:37;4.43;;;2.20;;
8982;SDS011;20979;59.850;10.660;2022-08-21T09:25:08;2.17;;;1.33;;
8982;SDS011;20979;59.850;10.660;2022-08-21T09:33:57;2.80;;;1.50;;
8982;SDS011;20979;59.850;10.660;2022-08-21T09:36:37;2.30;;;1.53;;
8982;SDS011;20979;59.850;10.660;2022-08-21T09:42:53;2.67;;;1.40;;
8982;SDS011;20979;59.850;10.660;2022-08-21T09:45:25;2.00;;;1.13;;
8982;SDS011;20979;59.850;10.660;2022-08-21T09:50:39;2.10;;;1.10;;
8982;SDS011;20979;59.850;10.660;2022-08-21T09:53:16;1.90;;;1.07;;
8982;SDS011;20979;59.850;10.660;2022-08-21T09:55:51;3.77;;;1.60;;
8982;SDS011;20979;59.850;10.660;2022-08-21T10:01:41;1.40;;;1.30;;
8982;SDS011;20979;59.850;10.660;2022-08-21T10:07:05;4.75;;;1.60;;
8982;SDS011;20979;59.850;10.660;2022-08-21T10:13:13;2.88;;;1.35;;
8982;SDS011;20979;59.850;10.660;2022-08-21T10:15:44;3.03;;;1.15;;
8982;SDS011;20979;59.850;10.660;2022-08-21T10:18:19;2.20;;;1.30;;
8982;SDS011;20979;59.850;10.660;2022-08-21T10:20:50;3.67;;;1.40;;
8982;SDS011;20979;59.850;10.660;2022-08-21T10:23:24;2.23;;;1.30;;
8982;SDS011;20979;59.850;10.660;2022-08-21T10:26:05;1.40;;;1.20;;
8982;SDS011;20979;59.850;10.660;2022-08-21T10:28:40;2.80;;;1.40;;
8982;SDS011;20979;59.850;10.660;2022-08-21T10:31:12;2.78;;;1.42;;
8982;SDS011;20979;59.850;10.660;2022-08-21T10:33:44;2.90;;;1.20;;
8982;SDS011;20979;59.850;10.660;2022-08-21T10:36:34;1.20;;;1.00;;
8982;SDS011;20979;59.850;10.660;2022-08-21T10:39:06;1.87;;;0.87;;
8982;SDS011;20979;59.850;10.660;2022-08-21T10:41:45;1.67;;;0.90;;
8982;SDS011;20979;59.850;10.660;2022-08-21T10:44:18;1.30;;;0.70;;
8982;SDS011;20979;59.850;10.660;2022-08-21T11:01:20;2.60;;;1.10;;
8982;SDS011;20979;59.850;10.660;2022-08-21T11:03:51;1.63;;;0.93;;
8982;SDS011;20979;59.850;10.660;2022-08-21T11:06:20;0.90;;;0.73;;
8982;SDS011;20979;59.850;10.660;2022-08-21T11:08:49;1.53;;;0.70;;
8982;SDS011;20979;59.850;10.660;2022-08-21T11:11:20;0.80;;;0.80;;
8982;SDS011;20979;59.850;10.660;2022-08-21T11:13:50;0.97;;;0.67;;
8982;SDS011;20979;59.850;10.660;2022-08-21T11:16:44;3.40;;;1.00;;
8982;SDS011;20979;59.850;10.660;2022-08-21T11:19:17;1.33;;;1.10;;
8982;SDS011;20979;59.850;10.660;2022-08-21T11:21:46;1.83;;;0.90;;
8982;SDS011;20979;59.850;10.660;2022-08-21T11:24:22;2.50;;;1.00;;
8982;SDS011;20979;59.850;10.660;2022-08-21T11:26:52;2.60;;;1.13;;
8982;SDS011;20979;59.850;10.660;2022-08-21T11:32:35;1.15;;;0.93;;
8982;SDS011;20979;59.850;10.660;2022-08-21T11:35:08;1.10;;;0.93;;
8982;SDS011;20979;59.850;10.660;2022-08-21T11:37:42;1.95;;;1.33;;
8982;SDS011;20979;59.850;10.660;2022-08-21T11:40:13;1.25;;;1.00;;
8982;SDS011;20979;59.850;10.660;2022-08-21T11:42:46;2.85;;;1.20;;
8982;SDS011;20979;59.850;10.660;2022-08-21T11:48:36;1.85;;;1.15;;
8982;SDS011;20979;59.850;10.660;2022-08-21T11:51:07;1.05;;;1.00;;
8982;SDS011;20979;59.850;10.660;2022-08-21T11:53:39;1.13;;;0.95;;
8982;SDS011;20979;59.850;10.660;2022-08-21T11:56:08;2.88;;;1.30;;
8982;SDS011;20979;59.850;10.660;2022-08-21T11:58:38;1.70;;;1.13;;
8982;SDS011;20979;59.850;10.660;2022-08-21T12:01:07;2.57;;;1.30;;
8982;SDS011;20979;59.850;10.660;2022-08-21T12:13:07;3.63;;;1.60;;
8982;SDS011;20979;59.850;10.660;2022-08-21T12:15:36;2.73;;;1.43;;
8982;SDS011;20979;59.850;10.660;2022-08-21T12:21:24;3.13;;;1.43;;
8982;SDS011;20979;59.850;10.660;2022-08-21T12:24:16;2.43;;;1.40;;
8982;SDS011;20979;59.850;10.660;2022-08-21T12:26:48;2.85;;;1.65;;
8982;SDS011;20979;59.850;10.660;2022-08-21T12:29:22;2.20;;;1.30;;
8982;SDS011;20979;59.850;10.660;2022-08-21T12:35:10;3.03;;;1.55;;
8982;SDS011;20979;59.850;10.660;2022-08-21T12:37:41;3.20;;;1.65;;
8982;SDS011;20979;59.850;10.660;2022-08-21T12:40:14;4.43;;;1.75;;
8982;SDS011;20979;59.850;10.660;2022-08-21T12:42:46;2.20;;;1.40;;
8982;SDS011;20979;59.850;10.660;2022-08-21T12:45:19;2.97;;;1.50;;
8982;SDS011;20979;59.850;10.660;2022-08-21T12:47:49;2.58;;;1.58;;
8982;SDS011;20979;59.850;10.660;2022-08-21T12:50:20;2.72;;;1.42;;
8982;SDS011;20979;59.850;10.660;2022-08-21T12:52:51;3.65;;;1.75;;
8982;SDS011;20979;59.850;10.660;2022-08-21T12:55:25;2.65;;;1.50;;
8982;SDS011;20979;59.850;10.660;2022-08-21T12:57:52;2.45;;;1.40;;
8982;SDS011;20979;59.850;10.660;2022-08-21T13:00:25;5.05;;;1.83;;
8982;SDS011;20979;59.850;10.660;2022-08-21T13:03:02;2.35;;;1.50;;
8982;SDS011;20979;59.850;10.660;2022-08-21T13:05:30;4.03;;;1.65;;
8982;SDS011;20979;59.850;10.660;2022-08-21T13:08:26;3.03;;;1.50;;
8982;SDS011;20979;59.850;10.660;2022-08-21T13:10:56;5.13;;;1.75;;
8982;SDS011;20979;59.850;10.660;2022-08-21T13:13:24;6.38;;;1.73;;
8982;SDS011;20979;59.850;10.660;2022-08-21T13:15:57;3.15;;;1.33;;
8982;SDS011;20979;59.850;10.660;2022-08-21T13:18:26;4.72;;;1.90;;
8982;SDS011;20979;59.850;10.660;2022-08-21T13:21:02;4.22;;;1.70;;
8982;SDS011;20979;59.850;10.660;2022-08-21T13:23:30;2.15;;;1.50;;
8982;SDS011;20979;59.850;10.660;2022-08-21T13:25:57;2.20;;;1.60;;
8982;SDS011;20979;59.850;10.660;2022-08-21T13:28:31;8.15;;;2.15;;
8982;SDS011;20979;59.850;10.660;2022-08-21T13:31:00;6.15;;;2.50;;
8982;SDS011;20979;59.850;10.660;2022-08-21T13:33:42;2.83;;;1.83;;
8982;SDS011;20979;59.850;10.660;2022-08-21T13:36:10;3.90;;;1.90;;
8982;SDS011;20979;59.850;10.660;2022-08-21T13:38:39;4.55;;;1.80;;
8982;SDS011;20979;59.850;10.660;2022-08-21T13:41:08;3.55;;;1.80;;
8982;SDS011;20979;59.850;10.660;2022-08-21T13:43:37;2.40;;;1.63;;
8982;SDS011;20979;59.850;10.660;2022-08-21T13:46:07;3.40;;;1.60;;
8982;SDS011;20979;59.850;10.660;2022-08-21T13:48:36;2.83;;;1.38;;
8982;SDS011;20979;59.850;10.660;2022-08-21T13:51:04;2.03;;;1.63;;
8982;SDS011;20979;59.850;10.660;2022-08-21T13:53:33;5.13;;;1.90;;
8982;SDS011;20979;59.850;10.660;2022-08-21T13:56:01;3.45;;;1.70;;
8982;SDS011;20979;59.850;10.660;2022-08-21T13:58:31;4.80;;;1.85;;
8982;SDS011;20979;59.850;10.660;2022-08-21T14:00:59;5.82;;;1.80;;
8982;SDS011;20979;59.850;10.660;2022-08-21T14:06:20;5.20;;;1.85;;
8982;SDS011;20979;59.850;10.660;2022-08-21T14:09:09;4.95;;;2.22;;
8982;SDS011;20979;59.850;10.660;2022-08-21T14:15:02;4.60;;;2.10;;
8982;SDS011;20979;59.850;10.660;2022-08-21T14:17:32;5.47;;;2.30;;
8982;SDS011;20979;59.850;10.660;2022-08-21T14:20:09;6.20;;;2.27;;
8982;SDS011;20979;59.850;10.660;2022-08-21T14:22:38;5.63;;;2.30;;
8982;SDS011;20979;59.850;10.660;2022-08-21T14:31:29;17.97;;;4.37;;
8982;SDS011;20979;59.850;10.660;2022-08-21T15:35:38;0.37;;;0.20;;
8982;SDS011;20979;59.850;10.660;2022-08-21T15:39:17;0.40;;;0.30;;
8982;SDS011;20979;59.850;10.660;2022-08-21T15:44:52;0.30;;;0.30;;
8982;SDS011;20979;59.850;10.660;2022-08-21T15:47:25;0.97;;;0.30;;
8982;SDS011;20979;59.850;10.660;2022-08-21T15:53:17;0.57;;;0.40;;
8982;SDS011;20979;59.850;10.660;2022-08-21T15:55:45;0.40;;;0.40;;
8982;SDS011;20979;59.850;10.660;2022-08-21T16:16:42;0.50;;;0.50;;
8982;SDS011;20979;59.850;10.660;2022-08-21T16:19:10;1.67;;;0.60;;
8982;SDS011;20979;59.850;10.660;2022-08-21T16:21:38;0.43;;;0.40;;
8982;SDS011;20979;59.850;10.660;2022-08-21T16:24:06;0.73;;;0.30;;
8982;SDS011;20979;59.850;10.660;2022-08-21T16:26:35;0.82;;;0.50;;
8982;SDS011;20979;59.850;10.660;2022-08-21T16:29:20;1.52;;;0.60;;
8982;SDS011;20979;59.850;10.660;2022-08-21T16:35:03;1.47;;;0.70;;
8982;SDS011;20979;59.850;10.660;2022-08-21T16:44:04;0.50;;;0.50;;
8982;SDS011;20979;59.850;10.660;2022-08-21T16:49:51;0.45;;;0.40;;
8982;SDS011;20979;59.850;10.660;2022-08-21T17:01:37;0.80;;;0.80;;
8982;SDS011;20979;59.850;10.660;2022-08-21T17:13:55;0.53;;;0.40;;
8982;SDS011;20979;59.850;10.660;2022-08-21T17:26:33;1.90;;;0.60;;
8982;SDS011;20979;59.850;10.660;2022-08-21T17:38:58;1.03;;;0.60;;
8982;SDS011;20979;59.850;10.660;2022-08-21T17:44:40;1.20;;;0.73;;
8982;SDS011;20979;59.850;10.660;2022-08-21T17:53:26;1.27;;;0.73;;
8982;SDS011;20979;59.850;10.660;2022-08-21T18:15:06;1.77;;;0.90;;
8982;SDS011;20979;59.850;10.660;2022-08-21T18:21:04;1.23;;;0.90;;
8982;SDS011;20979;59.850;10.660;2022-08-21T18:23:48;2.53;;;1.17;;
8982;SDS011;20979;59.850;10.660;2022-08-21T19:19:03;2.20;;;1.23;;
8982;SDS011;20979;59.850;10.660;2022-08-21T19:21:48;1.33;;;0.70;;
8982;SDS011;20979;59.850;10.660;2022-08-21T19:27:43;3.07;;;0.87;;
8982;SDS011;20979;59.850;10.660;2022-08-21T19:31:30;2.33;;;1.10;;
8982;SDS011;20979;59.850;10.660;2022-08-21T19:33:33;3.17;;;0.70;;
8982;SDS011;20979;59.850;10.660;2022-08-21T19:36:23;1.93;;;0.97;;
8982;SDS011;20979;59.850;10.660;2022-08-21T19:42:28;1.93;;;1.07;;
8982;SDS011;20979;59.850;10.660;2022-08-21T19:45:30;1.97;;;0.90;;
8982;SDS011;20979;59.850;10.660;2022-08-21T19:48:15;2.57;;;0.93;;
8982;SDS011;20979;59.850;10.660;2022-08-21T19:50:42;1.57;;;0.70;;
8982;SDS011;20979;59.850;10.660;2022-08-21T19:53:28;2.20;;;1.03;;
8982;SDS011;20979;59.850;10.660;2022-08-21T19:58:58;1.93;;;1.00;;
8982;SDS011;20979;59.850;10.660;2022-08-21T20:01:44;2.70;;;1.07;;
8982;SDS011;20979;59.850;10.660;2022-08-21T20:04:16;1.40;;;0.70;;
8982;SDS011;20979;59.850;10.660;2022-08-21T20:15:56;5.30;;;1.10;;
8982;SDS011;20979;59.850;10.660;2022-08-21T20:20:28;3.43;;;0.90;;
8982;SDS011;20979;59.850;10.660;2022-08-21T20:37:17;2.63;;;1.10;;
8982;SDS011;20979;59.850;10.660;2022-08-21T20:39:50;2.40;;;0.90;;
8982;SDS011;20979;59.850;10.660;2022-08-21T20:45:19;3.27;;;1.00;;
8982;SDS011;20979;59.850;10.660;2022-08-21T20:47:57;0.90;;;0.80;;
8982;SDS011;20979;59.850;10.660;2022-08-21T20:55:57;1.23;;;0.80;;
8982;SDS011;20979;59.850;10.660;2022-08-21T20:58:55;3.90;;;1.07;;
8982;SDS011;20979;59.850;10.660;2022-08-21T21:07:34;2.50;;;1.20;;
8982;SDS011;20979;59.850;10.660;2022-08-21T21:10:19;1.90;;;1.00;;
8982;SDS011;20979;59.850;10.660;2022-08-21T21:16:02;2.60;;;1.40;;
8982;SDS011;20979;59.850;10.660;2022-08-21T21:18:41;2.93;;;0.87;;
8982;SDS011;20979;59.850;10.660;2022-08-21T21:21:17;3.60;;;1.03;;
8982;SDS011;20979;59.850;10.660;2022-08-21T21:23:47;2.87;;;1.27;;
8982;SDS011;20979;59.850;10.660;2022-08-21T21:26:19;1.90;;;0.90;;
8982;SDS011;20979;59.850;10.660;2022-08-21T21:35:26;1.13;;;0.90;;
8982;SDS011;20979;59.850;10.660;2022-08-21T21:38:09;1.23;;;0.70;;
8982;SDS011;20979;59.850;10.660;2022-08-21T21:40:40;2.10;;;0.80;;
8982;SDS011;20979;59.850;10.660;2022-08-21T21:43:13;2.20;;;0.90;;
8982;SDS011;20979;59.850;10.660;2022-08-21T21:45:51;3.43;;;1.13;;
8982;SDS011;20979;59.850;10.660;2022-08-21T21:48:25;2.10;;;1.07;;
8982;SDS011;20979;59.850;10.660;2022-08-21T21:51:01;2.33;;;1.10;;
8982;SDS011;20979;59.850;10.660;2022-08-21T21:53:47;0.97;;;0.70;;
8982;SDS011;20979;59.850;10.660;2022-08-21T21:56:20;1.27;;;1.00;;
8982;SDS011;20979;59.850;10.660;2022-08-21T21:58:57;3.83;;;1.20;;
8982;SDS011;20979;59.850;10.660;2022-08-21T22:01:30;2.20;;;1.10;;
8982;SDS011;20979;59.850;10.660;2022-08-21T22:04:19;1.27;;;0.93;;
8982;SDS011;20979;59.850;10.660;2022-08-21T22:06:51;1.90;;;0.90;;
8982;SDS011;20979;59.850;10.660;2022-08-21T22:09:23;1.33;;;0.70;;
8982;SDS011;20979;59.850;10.660;2022-08-21T22:11:57;1.90;;;1.00;;
8982;SDS011;20979;59.850;10.660;2022-08-21T22:14:31;1.33;;;0.63;;
8982;SDS011;20979;59.850;10.660;2022-08-21T22:17:01;1.97;;;0.70;;
8982;SDS011;20979;59.850;10.660;2022-08-21T22:19:54;1.03;;;0.60;;
8982;SDS011;20979;59.850;10.660;2022-08-21T22:23:03;2.53;;;0.60;;
8982;SDS011;20979;59.850;10.660;2022-08-21T22:28:41;1.33;;;0.63;;
8982;SDS011;20979;59.850;10.660;2022-08-21T22:31:17;1.90;;;0.80;;
8982;SDS011;20979;59.850;10.660;2022-08-21T22:34:01;0.90;;;0.50;;
8982;SDS011;20979;59.850;10.660;2022-08-21T22:39:34;0.70;;;0.50;;
8982;SDS011;20979;59.850;10.660;2022-08-21T22:42:07;1.30;;;0.43;;
8982;SDS011;20979;59.850;10.660;2022-08-21T22:44:45;1.03;;;0.80;;
8982;SDS011;20979;59.850;10.660;2022-08-21T22:47:16;0.50;;;0.43;;
8982;SDS011;20979;59.850;10.660;2022-08-21T22:49:46;1.33;;;0.67;;
8982;SDS011;20979;59.850;10.660;2022-08-21T22:52:19;1.90;;;0.57;;
8982;SDS011;20979;59.850;10.660;2022-08-21T22:54:48;2.13;;;0.63;;
8982;SDS011;20979;59.850;10.660;2022-08-21T22:57:20;0.90;;;0.50;;
8982;SDS011;20979;59.850;10.660;2022-08-21T23:02:54;1.10;;;0.60;;
8982;SDS011;20979;59.850;10.660;2022-08-21T23:05:24;0.60;;;0.50;;
8982;SDS011;20979;59.850;10.660;2022-08-21T23:07:57;1.00;;;0.60;;
8982;SDS011;20979;59.850;10.660;2022-08-21T23:10:27;2.27;;;0.60;;
8982;SDS011;20979;59.850;10.660;2022-08-21T23:12:58;1.67;;;0.50;;
8982;SDS011;20979;59.850;10.660;2022-08-21T23:15:26;2.43;;;0.57;;
8982;SDS011;20979;59.850;10.660;2022-08-21T23:17:57;1.10;;;0.67;;
8982;SDS011;20979;59.850;10.660;2022-08-21T23:20:27;0.30;;;0.30;;
8982;SDS011;20979;59.850;10.660;2022-08-21T23:22:59;0.97;;;0.50;;
8982;SDS011;20979;59.850;10.660;2022-08-21T23:28:18;1.70;;;0.53;;
8982;SDS011;20979;59.850;10.660;2022-08-21T23:30:49;0.63;;;0.63;;
8982;SDS011;20979;59.850;10.660;2022-08-21T23:36:05;0.97;;;0.80;;
8982;SDS011;20979;59.850;10.660;2022-08-21T23:39:00;2.33;;;0.70;;
8982;SDS011;20979;59.850;10.660;2022-08-21T23:41:30;0.80;;;0.60;;
8982;SDS011;20979;59.850;10.660;2022-08-21T23:44:04;1.20;;;0.57;;
8982;SDS011;20979;59.850;10.660;2022-08-21T23:46:40;1.93;;;0.60;;
8982;SDS011;20979;59.850;10.660;2022-08-21T23:49:11;0.80;;;0.53;;
8982;SDS011;20979;59.850;10.660;2022-08-21T23:51:42;0.73;;;0.40;;
8982;SDS011;20979;59.850;10.660;2022-08-21T23:54:14;0.70;;;0.60;;
8982;SDS011;20979;59.850;10.660;2022-08-21T23:56:50;0.90;;;0.70;;
8982;SDS011;20979;59.850;10.660;2022-08-21T23:59:25;0.77;;;0.50;;
